createdAt,value
2023-05-05T00:03:47.989Z,10.60
2023-05-05T00:13:15.815Z,10.40
2023-05-05T00:17:17.628Z,10.30
2023-05-05T00:21:19.457Z,10.20
2023-05-05T00:25:21.294Z,10.10
2023-05-05T00:29:23.042Z,10.10
2023-05-05T00:33:24.882Z,9.90
2023-05-05T00:37:27.113Z,9.90
2023-05-05T00:41:30.378Z,9.80
2023-05-05T00:45:32.181Z,9.70
2023-05-05T00:49:34.000Z,9.70
2023-05-05T00:53:36.045Z,9.60
2023-05-05T00:57:37.815Z,9.60
2023-05-05T01:01:39.715Z,9.50
2023-05-05T01:05:55.939Z,9.50
2023-05-05T01:10:33.751Z,9.50
2023-05-05T01:14:40.915Z,9.40
2023-05-05T01:19:04.866Z,9.40
2023-05-05T01:23:07.063Z,9.40
2023-05-05T01:27:30.780Z,9.40
2023-05-05T01:31:39.020Z,9.30
2023-05-05T01:35:44.050Z,9.30
2023-05-05T01:39:46.865Z,9.30
2023-05-05T01:43:50.048Z,9.20
2023-05-05T01:47:55.876Z,9.20
2023-05-05T01:51:57.909Z,9.20
2023-05-05T01:55:59.687Z,9.10
2023-05-05T02:00:01.893Z,9.10
2023-05-05T02:04:03.686Z,9.00
2023-05-05T02:08:11.670Z,9.00
2023-05-05T02:12:13.328Z,9.00
2023-05-05T02:16:21.697Z,9.00
2023-05-05T02:20:29.935Z,9.00
2023-05-05T02:24:38.714Z,9.00
2023-05-05T02:28:49.000Z,9.00
2023-05-05T02:32:55.391Z,9.00
2023-05-05T02:36:59.912Z,9.00
2023-05-05T02:41:01.769Z,9.00
2023-05-05T02:45:06.988Z,9.10
2023-05-05T02:49:08.835Z,9.10
2023-05-05T02:53:10.691Z,9.20
2023-05-05T02:57:12.716Z,9.20
2023-05-05T03:01:51.293Z,9.20
2023-05-05T03:06:00.280Z,9.30
2023-05-05T03:10:14.107Z,9.20
2023-05-05T03:14:18.416Z,9.30
2023-05-05T03:18:20.700Z,9.30
2023-05-05T03:22:22.521Z,9.30
2023-05-05T03:26:25.028Z,9.30
2023-05-05T03:30:26.822Z,9.30
2023-05-05T03:34:28.587Z,9.30
2023-05-05T03:38:30.461Z,9.30
2023-05-05T03:42:32.418Z,9.20
2023-05-05T03:46:34.253Z,9.20
2023-05-05T03:50:36.728Z,9.30
2023-05-05T03:54:49.352Z,9.30
2023-05-05T03:58:53.863Z,9.30
2023-05-05T04:08:11.670Z,9.50
2023-05-05T04:12:14.796Z,9.70
2023-05-05T04:16:16.808Z,9.90
2023-05-05T04:20:18.887Z,10.00
2023-05-05T04:24:24.879Z,10.20
2023-05-05T04:28:26.821Z,10.40
2023-05-05T04:32:28.715Z,10.70
2023-05-05T04:36:30.625Z,11.10
2023-05-05T04:40:32.863Z,12.10
2023-05-05T04:44:34.719Z,13.40
2023-05-05T04:48:38.038Z,13.10
2023-05-05T04:52:40.056Z,12.80
2023-05-05T04:56:41.848Z,13.00
2023-05-05T05:00:43.899Z,13.70
2023-05-05T05:04:45.705Z,14.00
2023-05-05T05:08:47.636Z,13.80
2023-05-05T05:12:52.721Z,13.90
2023-05-05T05:16:56.629Z,16.30
2023-05-05T05:21:01.152Z,15.50
2023-05-05T05:25:02.986Z,14.90
2023-05-05T05:29:05.161Z,14.80
2023-05-05T05:33:12.900Z,15.60
2023-05-05T05:37:14.892Z,16.90
2023-05-05T05:41:21.721Z,19.10
2023-05-05T05:45:23.689Z,20.10
2023-05-05T05:49:25.684Z,20.10
2023-05-05T05:53:30.741Z,19.60
2023-05-05T05:57:38.956Z,20.60
2023-05-05T06:02:10.721Z,19.90
2023-05-05T06:06:12.570Z,18.10
2023-05-05T06:10:27.413Z,18.30
2023-05-05T06:14:32.943Z,20.90
2023-05-05T06:18:34.768Z,22.00
2023-05-05T06:22:42.671Z,21.70
2023-05-05T06:26:44.650Z,22.80
2023-05-05T06:30:52.401Z,23.70
2023-05-05T06:35:00.131Z,22.70
2023-05-05T06:39:04.037Z,23.20
2023-05-05T06:43:05.979Z,24.20
2023-05-05T06:47:09.773Z,25.60
2023-05-05T06:51:17.642Z,25.20
2023-05-05T06:55:24.400Z,24.60
2023-05-05T06:59:46.864Z,25.40
2023-05-05T07:03:48.863Z,26.60
2023-05-05T07:08:15.174Z,26.10
2023-05-05T07:12:19.289Z,26.50
2023-05-05T07:16:30.340Z,26.50
2023-05-05T07:20:38.631Z,26.90
2023-05-05T07:25:00.784Z,27.50
2023-05-05T07:29:04.765Z,28.30
2023-05-05T07:33:18.250Z,27.20
2023-05-05T07:37:20.621Z,26.30
2023-05-05T07:41:25.365Z,26.20
2023-05-05T07:45:30.440Z,26.00
2023-05-05T07:49:32.490Z,26.80
2023-05-05T07:53:36.874Z,26.90
2023-05-05T07:57:47.326Z,27.50
2023-05-05T08:01:55.047Z,28.30
2023-05-05T08:05:57.157Z,27.90
2023-05-05T08:11:01.069Z,27.60
2023-05-05T08:15:12.302Z,28.70
2023-05-05T08:19:28.582Z,28.60
2023-05-05T08:23:34.356Z,28.50
2023-05-05T08:27:44.473Z,29.10
2023-05-05T08:32:17.676Z,29.00
2023-05-05T08:36:19.681Z,28.70
2023-05-05T08:40:27.374Z,28.60
2023-05-05T08:44:43.026Z,28.70
2023-05-05T08:48:46.199Z,27.90
2023-05-05T08:52:49.209Z,27.50
2023-05-05T08:56:54.694Z,27.80
2023-05-05T09:00:57.297Z,27.20
2023-05-05T09:05:05.358Z,27.70
2023-05-05T09:09:23.585Z,27.80
2023-05-05T09:13:25.536Z,27.60
2023-05-05T09:17:27.602Z,28.10
2023-05-05T09:21:29.712Z,27.70
2023-05-05T09:25:40.407Z,27.30
2023-05-05T09:29:44.539Z,26.70
2023-05-05T09:33:46.600Z,26.70
2023-05-05T09:37:48.464Z,26.40
2023-05-05T09:41:50.843Z,26.20
2023-05-05T09:46:09.494Z,26.10
2023-05-05T09:50:16.368Z,25.40
2023-05-05T09:54:26.220Z,25.30
2023-05-05T09:58:29.083Z,25.20
2023-05-05T10:02:40.766Z,24.50
2023-05-05T10:06:49.663Z,24.10
2023-05-05T10:11:04.220Z,24.20
2023-05-05T10:15:07.286Z,24.50
2023-05-05T10:19:09.100Z,24.20
2023-05-05T10:23:20.838Z,24.10
2023-05-05T10:27:24.176Z,24.00
2023-05-05T10:31:45.387Z,24.10
2023-05-05T10:35:47.862Z,24.10
2023-05-05T10:39:52.919Z,24.50
2023-05-05T10:44:02.073Z,24.50
2023-05-05T10:48:06.960Z,23.90
2023-05-05T10:52:16.847Z,23.80
2023-05-05T11:13:05.539Z,24.40
2023-05-05T11:35:55.844Z,24.70
2023-05-05T11:40:04.423Z,24.30
2023-05-05T11:44:16.599Z,24.40
2023-05-05T11:48:24.395Z,24.60
2023-05-05T11:52:27.291Z,24.70
2023-05-05T11:56:29.159Z,24.70
2023-05-05T12:00:35.041Z,24.80
2023-05-05T12:04:39.083Z,25.00
2023-05-05T12:08:44.155Z,25.00
2023-05-05T12:12:46.152Z,25.00
2023-05-05T12:16:57.996Z,24.50
2023-05-05T12:20:59.901Z,24.90
2023-05-05T12:25:03.313Z,25.00
2023-05-05T12:29:05.308Z,24.70
2023-05-05T12:33:08.126Z,24.30
2023-05-05T12:37:09.961Z,24.00
2023-05-05T12:41:11.698Z,24.30
2023-05-05T12:45:17.495Z,24.50
2023-05-05T12:49:19.236Z,24.80
2023-05-05T12:53:30.077Z,25.10
2023-05-05T12:57:36.878Z,25.00
2023-05-05T13:01:53.945Z,25.00
2023-05-05T13:05:56.153Z,24.80
2023-05-05T13:10:14.129Z,25.20
2023-05-05T13:14:16.208Z,25.30
2023-05-05T13:18:28.891Z,25.00
2023-05-05T13:38:00.882Z,24.90
2023-05-05T13:42:02.957Z,24.60
2023-05-05T13:46:20.043Z,24.30
2023-05-05T13:56:29.933Z,24.40
2023-05-05T14:00:35.071Z,24.50
2023-05-05T14:04:40.202Z,24.60
2023-05-05T14:08:48.024Z,24.60
2023-05-05T14:12:50.299Z,25.00
2023-05-05T14:22:49.311Z,25.10
2023-05-05T15:23:54.157Z,24.40
2023-05-05T15:32:20.564Z,24.30
2023-05-05T15:36:29.308Z,24.30
2023-05-05T15:40:32.973Z,24.20
2023-05-05T15:44:34.809Z,24.40
2023-05-05T15:48:41.579Z,24.30
2023-05-05T15:52:50.041Z,24.20
2023-05-05T15:57:38.573Z,24.10
2023-05-05T16:01:48.928Z,23.70
2023-05-05T16:05:53.449Z,23.70
2023-05-05T16:10:01.001Z,23.80
2023-05-05T16:14:04.152Z,23.70
2023-05-05T16:18:16.027Z,23.80
2023-05-05T16:22:20.536Z,23.80
2023-05-05T16:26:22.524Z,23.70
2023-05-05T16:30:30.111Z,23.60
2023-05-05T16:34:31.954Z,23.50
2023-05-05T16:38:33.803Z,23.40
2023-05-05T16:42:35.698Z,23.30
2023-05-05T16:46:40.071Z,23.20
2023-05-05T16:50:42.105Z,23.10
2023-05-05T16:54:51.518Z,23.00
2023-05-05T16:59:02.676Z,22.90
2023-05-05T17:03:29.387Z,22.80
2023-05-05T17:07:31.313Z,22.70
2023-05-05T17:11:33.137Z,22.70
2023-05-05T17:15:36.182Z,22.50
2023-05-05T17:19:45.834Z,22.40
2023-05-05T17:23:52.219Z,22.40
2023-05-05T17:27:54.836Z,22.30
2023-05-05T17:31:59.081Z,22.30
2023-05-05T17:36:01.222Z,22.20
2023-05-05T17:40:19.653Z,22.20
2023-05-05T17:44:37.711Z,22.10
2023-05-05T17:48:54.785Z,22.00
2023-05-05T17:54:19.394Z,22.00
2023-05-05T17:58:37.152Z,21.90
2023-05-05T18:16:59.427Z,21.60
2023-05-05T18:21:14.005Z,21.50
2023-05-05T18:25:27.770Z,21.40
2023-05-05T18:29:43.418Z,21.20
2023-05-05T18:33:46.863Z,21.10
2023-05-05T18:37:55.255Z,20.80
2023-05-05T18:41:59.734Z,20.70
2023-05-05T18:50:46.048Z,20.50
2023-05-05T18:54:52.610Z,20.40
2023-05-05T19:42:25.291Z,19.60
2023-05-05T19:46:27.551Z,19.60
2023-05-05T20:04:00.713Z,19.40
2023-05-05T20:54:49.580Z,19.10
2023-05-05T20:58:54.417Z,19.00
2023-05-05T21:02:57.252Z,18.90
2023-05-05T21:06:59.204Z,18.90
2023-05-05T21:11:01.015Z,18.80
2023-05-05T21:15:06.136Z,18.80
2023-05-05T21:19:07.925Z,18.70
2023-05-05T21:23:12.864Z,18.70
2023-05-05T21:27:17.870Z,18.70
2023-05-05T21:31:22.429Z,18.60
2023-05-05T21:35:24.373Z,18.50
2023-05-05T21:39:26.232Z,18.40
2023-05-05T21:43:32.843Z,18.30
2023-05-05T21:47:34.664Z,18.30
2023-05-05T21:51:37.425Z,18.20
2023-05-05T21:55:43.874Z,18.20
2023-05-05T21:59:45.849Z,18.20
2023-05-05T22:03:48.001Z,18.30
2023-05-05T22:07:49.797Z,18.20
2023-05-05T22:11:51.649Z,18.20
2023-05-05T22:15:53.463Z,18.10
2023-05-05T22:19:57.563Z,18.10
2023-05-05T22:23:59.260Z,18.00
2023-05-05T22:28:11.414Z,17.90
2023-05-05T22:32:13.388Z,17.90
2023-05-05T22:36:16.390Z,17.70
2023-05-05T22:40:20.244Z,17.70
2023-05-05T22:44:25.417Z,17.70
2023-05-05T22:48:27.260Z,17.70
2023-05-05T22:52:52.465Z,17.80
2023-05-05T22:57:02.050Z,17.70
2023-05-05T23:01:09.017Z,17.80
2023-05-05T23:05:24.846Z,17.70
2023-05-05T23:09:26.920Z,17.70
2023-05-05T23:13:36.220Z,17.50
2023-05-05T23:17:38.042Z,17.20
2023-05-05T23:21:52.143Z,16.90
2023-05-05T23:25:58.076Z,16.60
2023-05-05T23:29:59.889Z,16.60
2023-05-05T23:34:01.812Z,16.60
2023-05-05T23:38:08.166Z,16.50
2023-05-05T23:42:10.051Z,16.60
2023-05-05T23:46:11.922Z,16.60
2023-05-05T23:50:13.752Z,16.50
2023-05-05T23:54:15.444Z,16.50
2023-05-05T23:58:17.282Z,16.50
